createdAt,value
2022-09-28T00:01:24.730Z,1.80
2022-09-28T00:03:54.524Z,1.80
2022-09-28T00:06:24.426Z,1.80
2022-09-28T00:08:54.276Z,2.00
2022-09-28T00:11:23.783Z,2.03
2022-09-28T00:13:52.993Z,1.70
2022-09-28T00:16:22.351Z,1.10
2022-09-28T00:18:51.402Z,1.10
2022-09-28T00:21:21.692Z,1.30
2022-09-28T00:24:08.193Z,1.17
2022-09-28T00:26:39.041Z,1.30
2022-09-28T00:29:07.470Z,1.10
2022-09-28T00:31:35.784Z,1.20
2022-09-28T00:34:05.976Z,0.90
2022-09-28T00:36:35.008Z,1.23
2022-09-28T00:39:05.490Z,1.40
2022-09-28T00:41:33.789Z,1.57
2022-09-28T00:44:41.804Z,1.20
2022-09-28T00:47:37.456Z,1.33
2022-09-28T00:50:08.484Z,1.00
2022-09-28T00:52:37.943Z,1.10
2022-09-28T00:55:08.498Z,1.00
2022-09-28T00:57:40.068Z,1.00
2022-09-28T01:00:09.755Z,1.60
2022-09-28T01:02:39.902Z,0.77
2022-09-28T01:05:08.716Z,0.80
2022-09-28T01:07:37.380Z,0.90
2022-09-28T01:10:06.756Z,0.90
2022-09-28T01:12:35.028Z,0.60
2022-09-28T01:15:03.321Z,0.70
2022-09-28T01:17:35.316Z,0.60
2022-09-28T01:20:32.748Z,0.70
2022-09-28T01:23:27.803Z,0.50
2022-09-28T01:25:56.777Z,0.53
2022-09-28T01:28:27.728Z,0.60
2022-09-28T01:31:07.692Z,0.50
2022-09-28T01:33:39.345Z,0.37
2022-09-28T01:36:09.278Z,0.50
2022-09-28T01:38:39.171Z,0.57
2022-09-28T01:41:23.904Z,0.60
2022-09-28T01:43:55.223Z,0.40
2022-09-28T01:46:24.007Z,0.50
2022-09-28T01:48:53.349Z,0.50
2022-09-28T01:51:24.477Z,0.50
2022-09-28T01:53:55.068Z,0.57
2022-09-28T01:56:26.097Z,0.40
2022-09-28T01:59:02.488Z,0.80
2022-09-28T02:01:31.657Z,0.50
2022-09-28T02:04:02.925Z,0.50
2022-09-28T02:06:33.000Z,0.30
2022-09-28T02:09:06.705Z,0.23
2022-09-28T02:11:37.931Z,0.60
2022-09-28T02:14:06.900Z,0.57
2022-09-28T02:16:37.092Z,0.40
2022-09-28T02:19:08.608Z,0.50
2022-09-28T02:21:43.023Z,0.73
2022-09-28T02:24:19.336Z,0.50
2022-09-28T02:26:52.645Z,0.50
2022-09-28T02:29:23.939Z,0.40
2022-09-28T02:31:52.360Z,0.43
2022-09-28T02:34:21.100Z,0.60
2022-09-28T02:36:49.638Z,0.20
2022-09-28T02:39:19.240Z,0.63
2022-09-28T02:41:57.357Z,0.30
2022-09-28T02:44:37.481Z,0.60
2022-09-28T02:47:08.953Z,0.40
2022-09-28T02:49:42.196Z,0.47
2022-09-28T02:52:23.635Z,0.40
2022-09-28T02:55:20.040Z,1.03
2022-09-28T02:58:02.492Z,0.40
2022-09-28T03:00:32.362Z,0.40
2022-09-28T03:03:02.693Z,0.57
2022-09-28T03:05:33.413Z,0.50
2022-09-28T03:08:02.509Z,0.60
2022-09-28T03:10:38.543Z,0.60
2022-09-28T03:13:09.696Z,0.87
2022-09-28T03:15:38.027Z,0.50
2022-09-28T03:18:06.383Z,0.37
2022-09-28T03:20:35.817Z,0.40
2022-09-28T03:23:23.934Z,0.60
2022-09-28T03:25:52.502Z,0.30
2022-09-28T03:28:22.763Z,0.40
2022-09-28T03:30:54.083Z,0.30
2022-09-28T03:33:22.499Z,0.47
2022-09-28T03:35:50.878Z,0.50
2022-09-28T03:38:21.843Z,0.30
2022-09-28T03:41:05.285Z,0.40
2022-09-28T03:43:34.885Z,0.67
2022-09-28T03:46:03.492Z,0.40
2022-09-28T03:48:33.106Z,0.67
2022-09-28T03:51:03.469Z,0.77
2022-09-28T03:53:31.872Z,0.33
2022-09-28T03:56:03.798Z,0.30
2022-09-28T03:58:32.092Z,0.30
2022-09-28T04:01:05.337Z,0.40
2022-09-28T04:03:33.697Z,0.30
2022-09-28T04:06:02.079Z,0.30
2022-09-28T04:08:30.233Z,0.50
2022-09-28T04:11:13.493Z,0.60
2022-09-28T04:13:41.649Z,0.40
2022-09-28T04:16:11.538Z,1.30
2022-09-28T04:18:39.979Z,0.40
2022-09-28T04:21:09.435Z,0.70
2022-09-28T04:23:41.006Z,0.60
2022-09-28T04:26:17.598Z,0.37
2022-09-28T04:29:06.535Z,0.50
2022-09-28T04:31:40.659Z,1.07
2022-09-28T04:34:14.797Z,0.50
2022-09-28T04:36:43.939Z,0.47
2022-09-28T04:39:13.091Z,0.47
2022-09-28T04:41:42.151Z,0.30
2022-09-28T04:44:19.338Z,0.40
2022-09-28T04:46:50.041Z,0.50
2022-09-28T04:49:25.224Z,0.70
2022-09-28T04:51:57.612Z,0.60
2022-09-28T04:54:31.590Z,0.60
2022-09-28T04:57:00.012Z,0.50
2022-09-28T04:59:28.361Z,0.43
2022-09-28T05:02:03.387Z,0.53
2022-09-28T05:04:37.528Z,0.60
2022-09-28T05:07:05.999Z,0.50
2022-09-28T05:09:38.447Z,0.50
2022-09-28T05:12:07.081Z,0.40
2022-09-28T05:14:35.525Z,0.53
2022-09-28T05:17:06.701Z,0.50
2022-09-28T05:19:35.645Z,0.47
2022-09-28T05:22:07.323Z,0.67
2022-09-28T05:24:38.402Z,0.60
2022-09-28T05:27:06.875Z,0.63
2022-09-28T05:29:35.302Z,0.70
2022-09-28T05:32:09.022Z,1.00
2022-09-28T05:34:42.767Z,1.93
2022-09-28T05:37:11.102Z,0.90
2022-09-28T05:39:39.518Z,0.90
2022-09-28T05:42:13.039Z,0.70
2022-09-28T05:44:43.294Z,1.00
2022-09-28T05:47:14.543Z,0.80
2022-09-28T05:49:42.961Z,0.93
2022-09-28T05:52:14.267Z,1.00
2022-09-28T05:54:45.549Z,1.00
2022-09-28T05:57:22.542Z,1.00
2022-09-28T05:59:50.959Z,0.90
2022-09-28T06:02:26.807Z,0.80
2022-09-28T06:04:55.819Z,0.80
2022-09-28T06:07:28.807Z,0.80
2022-09-28T06:09:57.168Z,0.87
2022-09-28T06:12:29.936Z,0.90
2022-09-28T06:14:59.458Z,1.10
2022-09-28T06:17:29.630Z,1.20
2022-09-28T06:20:04.073Z,1.63
2022-09-28T06:22:32.225Z,1.87
2022-09-28T06:25:05.521Z,2.10
2022-09-28T06:27:37.223Z,1.70
2022-09-28T06:30:06.555Z,1.30
2022-09-28T06:32:36.224Z,1.40
2022-09-28T06:35:05.042Z,1.60
2022-09-28T06:37:45.490Z,1.27
2022-09-28T06:40:14.034Z,1.20
2022-09-28T06:42:43.716Z,1.53
2022-09-28T06:45:14.228Z,1.70
2022-09-28T06:47:47.420Z,1.67
2022-09-28T06:50:15.808Z,1.90
2022-09-28T06:52:49.689Z,5.90
2022-09-28T06:55:17.914Z,6.40
2022-09-28T06:57:49.232Z,2.30
2022-09-28T07:00:20.419Z,2.83
2022-09-28T07:02:52.648Z,19.60
2022-09-28T07:05:27.386Z,1.60
2022-09-28T07:07:56.879Z,1.40
2022-09-28T07:10:29.582Z,6.47
2022-09-28T07:12:58.473Z,1.00
2022-09-28T07:15:27.041Z,4.73
2022-09-28T07:18:02.464Z,1.40
2022-09-28T07:20:48.105Z,1.23
2022-09-28T07:23:24.527Z,5.13
2022-09-28T07:25:52.753Z,1.23
2022-09-28T07:28:21.245Z,1.30
2022-09-28T07:31:00.244Z,1.27
2022-09-28T07:33:32.953Z,1.00
2022-09-28T07:36:06.539Z,1.23
2022-09-28T07:38:35.280Z,1.03
2022-09-28T07:41:12.710Z,0.83
2022-09-28T07:43:41.035Z,1.00
2022-09-28T07:46:14.946Z,1.00
2022-09-28T07:48:45.957Z,0.90
2022-09-28T07:51:20.069Z,1.03
2022-09-28T07:53:48.854Z,0.90
2022-09-28T07:56:25.576Z,0.70
2022-09-28T07:58:53.955Z,0.60
2022-09-28T08:01:31.192Z,0.70
2022-09-28T08:04:02.712Z,0.60
2022-09-28T08:06:32.919Z,0.57
2022-09-28T08:09:05.644Z,0.40
2022-09-28T08:11:40.223Z,0.50
2022-09-28T08:14:08.484Z,0.50
2022-09-28T08:16:40.070Z,0.40
2022-09-28T08:19:10.141Z,0.30
2022-09-28T08:21:46.188Z,0.30
2022-09-28T08:24:17.775Z,0.33
2022-09-28T08:26:47.238Z,0.50
2022-09-28T08:29:16.176Z,0.50
2022-09-28T08:31:44.430Z,0.57
2022-09-28T08:34:17.904Z,0.50
2022-09-28T08:36:46.407Z,0.30
2022-09-28T08:39:20.432Z,0.30
2022-09-28T08:41:51.178Z,0.30
2022-09-28T08:44:27.917Z,0.50
2022-09-28T08:46:57.844Z,0.23
2022-09-28T08:49:34.391Z,0.30
2022-09-28T08:52:07.374Z,0.43
2022-09-28T08:54:45.616Z,0.40
2022-09-28T08:57:21.650Z,0.30
2022-09-28T08:59:51.800Z,0.70
2022-09-28T09:02:29.239Z,0.13
2022-09-28T09:04:58.966Z,0.40
2022-09-28T09:08:10.957Z,0.50
2022-09-28T09:10:52.228Z,0.50
2022-09-28T09:13:44.451Z,0.47
2022-09-28T09:16:40.901Z,0.47
2022-09-28T09:19:22.352Z,0.37
2022-09-28T09:21:56.124Z,0.40
2022-09-28T09:25:04.712Z,0.30
2022-09-28T09:27:43.030Z,0.40
2022-09-28T09:30:16.349Z,0.50
2022-09-28T09:33:08.704Z,0.27
2022-09-28T09:36:04.558Z,0.20
2022-09-28T09:38:48.552Z,0.20
2022-09-28T09:41:22.545Z,0.30
2022-09-28T09:44:30.929Z,0.40
2022-09-28T09:47:02.330Z,0.40
2022-09-28T09:49:34.498Z,0.40
2022-09-28T09:52:05.213Z,0.30
2022-09-28T09:54:36.967Z,0.53
2022-09-28T09:57:09.022Z,0.30
2022-09-28T09:59:45.398Z,0.17
2022-09-28T10:02:25.340Z,0.20
2022-09-28T10:04:55.156Z,0.50
2022-09-28T10:07:26.222Z,0.30
2022-09-28T10:10:03.621Z,0.30
2022-09-28T10:12:34.743Z,0.30
2022-09-28T10:15:03.356Z,0.30
2022-09-28T10:17:32.969Z,0.20
2022-09-28T10:20:02.769Z,0.20
2022-09-28T10:22:32.020Z,0.30
2022-09-28T10:25:02.081Z,0.30
2022-09-28T10:27:32.830Z,0.57
2022-09-28T10:30:02.060Z,0.40
2022-09-28T10:32:38.982Z,0.40
2022-09-28T10:35:16.087Z,0.40
2022-09-28T10:37:54.286Z,0.20
2022-09-28T10:40:43.759Z,0.40
2022-09-28T10:43:19.890Z,0.30
2022-09-28T10:45:59.702Z,0.30
2022-09-28T10:48:28.160Z,0.43
2022-09-28T10:51:00.586Z,0.20
2022-09-28T10:53:28.893Z,0.20
2022-09-28T10:56:01.569Z,0.17
2022-09-28T10:58:45.429Z,0.20
2022-09-28T11:01:15.347Z,0.20
2022-09-28T11:04:10.846Z,0.13
2022-09-28T11:07:17.140Z,0.30
2022-09-28T11:09:48.751Z,0.27
2022-09-28T11:12:22.618Z,0.50
2022-09-28T11:15:03.745Z,0.20
2022-09-28T11:17:44.198Z,0.40
2022-09-28T11:21:00.926Z,0.23
2022-09-28T11:23:40.054Z,0.20
2022-09-28T11:26:23.659Z,0.13
2022-09-28T11:29:00.243Z,0.40
2022-09-28T11:31:31.050Z,0.20
2022-09-28T11:34:10.256Z,0.13
2022-09-28T11:37:01.668Z,0.30
2022-09-28T11:40:07.276Z,0.20
2022-09-28T11:42:51.674Z,0.20
2022-09-28T11:45:36.938Z,0.10
2022-09-28T11:48:09.680Z,0.40
2022-09-28T11:50:50.668Z,0.30
2022-09-28T11:53:22.378Z,0.30
2022-09-28T11:55:53.567Z,0.30
2022-09-28T11:58:25.654Z,0.40
2022-09-28T12:01:09.460Z,0.43
2022-09-28T12:03:41.033Z,0.30
2022-09-28T12:06:11.163Z,0.87
2022-09-28T12:08:44.480Z,0.37
2022-09-28T12:11:23.405Z,0.20
2022-09-28T12:13:51.867Z,0.10
2022-09-28T12:17:03.590Z,0.60
2022-09-28T12:19:21.194Z,0.10
2022-09-28T12:21:54.024Z,0.40
2022-09-28T12:24:24.805Z,0.30
2022-09-28T12:26:55.487Z,0.40
2022-09-28T12:29:25.950Z,0.30
2022-09-28T13:29:15.196Z,0.20
2022-09-28T13:31:46.516Z,0.33
2022-09-28T13:34:18.373Z,0.20
2022-09-28T13:36:48.260Z,0.20
2022-09-28T13:39:41.058Z,0.20
2022-09-28T13:42:09.479Z,0.40
2022-09-28T13:45:04.472Z,0.40
2022-09-28T13:47:50.204Z,0.30
2022-09-28T13:50:29.812Z,0.20
2022-09-28T13:53:09.305Z,0.20
2022-09-28T13:55:39.940Z,0.20
2022-09-28T13:58:19.259Z,0.20
2022-09-28T14:00:52.579Z,0.40
2022-09-28T14:03:30.571Z,0.60
2022-09-28T14:06:08.154Z,0.40
2022-09-28T14:08:41.743Z,1.00
2022-09-28T14:11:52.580Z,1.70
2022-09-28T14:14:51.602Z,0.70
2022-09-28T14:18:09.108Z,1.27
2022-09-28T14:20:38.994Z,0.77
2022-09-28T14:23:43.334Z,0.43
2022-09-28T14:27:05.355Z,0.70
2022-09-28T14:29:34.805Z,0.40
2022-09-28T14:32:20.027Z,0.70
2022-09-28T14:34:59.521Z,0.93
2022-09-28T14:37:48.995Z,0.67
2022-09-28T14:40:49.361Z,1.53
2022-09-28T14:43:31.680Z,0.60
2022-09-28T14:46:40.857Z,0.37
2022-09-28T14:49:57.879Z,0.50
2022-09-28T14:52:47.167Z,0.70
2022-09-28T14:55:35.536Z,0.67
2022-09-28T14:58:04.514Z,0.60
2022-09-28T15:00:33.330Z,0.90
2022-09-28T15:03:12.124Z,0.50
2022-09-28T15:05:49.803Z,0.50
2022-09-28T15:08:29.260Z,0.47
2022-09-28T15:10:58.759Z,0.50
2022-09-28T15:13:43.063Z,0.30
2022-09-28T15:16:25.092Z,0.77
2022-09-28T15:19:18.091Z,0.50
2022-09-28T15:21:50.397Z,0.40
2022-09-28T15:24:36.719Z,0.30
2022-09-28T15:27:26.201Z,0.30
2022-09-28T15:29:58.735Z,0.30
2022-09-28T15:32:34.651Z,0.30
2022-09-28T15:35:15.621Z,0.60
2022-09-28T15:37:43.868Z,0.30
2022-09-28T15:40:24.463Z,0.40
2022-09-28T15:43:16.243Z,0.57
2022-09-28T15:45:59.393Z,0.83
2022-09-28T15:48:31.148Z,0.93
2022-09-28T15:51:15.768Z,0.50
2022-09-28T15:53:45.034Z,0.70
2022-09-28T15:56:17.252Z,0.40
2022-09-28T15:58:45.558Z,0.60
2022-09-28T16:01:37.395Z,0.57
2022-09-28T16:04:50.461Z,0.50
2022-09-28T16:07:27.601Z,0.50
2022-09-28T16:10:12.327Z,0.50
2022-09-28T16:12:49.168Z,0.70
2022-09-28T16:15:24.343Z,1.43
2022-09-28T16:18:03.929Z,2.20
2022-09-28T16:21:05.561Z,1.50
2022-09-28T16:23:39.321Z,0.97
2022-09-28T16:26:12.094Z,1.50
2022-09-28T16:28:54.345Z,1.00
2022-09-28T16:31:34.572Z,0.90
2022-09-28T16:34:25.537Z,1.00
2022-09-28T16:36:56.585Z,0.70
2022-09-28T16:39:31.674Z,0.87
2022-09-28T16:42:03.222Z,0.63
2022-09-28T16:44:36.403Z,0.80
2022-09-28T16:47:07.517Z,0.70
2022-09-28T16:49:39.296Z,0.40
2022-09-28T16:52:35.636Z,0.70
2022-09-28T16:58:06.442Z,0.53
2022-09-28T17:00:39.037Z,1.00
2022-09-28T17:03:15.903Z,0.70
2022-09-28T17:05:48.152Z,0.90
2022-09-28T17:08:30.346Z,0.80
2022-09-28T17:13:47.886Z,0.80
2022-09-28T17:16:28.249Z,0.70
2022-09-28T17:19:06.853Z,0.90
2022-09-28T17:21:41.775Z,0.90
2022-09-28T17:24:10.140Z,1.50
2022-09-28T17:26:45.171Z,1.10
2022-09-28T17:29:18.917Z,1.40
2022-09-28T17:31:48.799Z,1.40
2022-09-28T17:34:22.106Z,1.60
2022-09-28T17:36:53.346Z,3.07
2022-09-28T17:39:21.749Z,1.60
2022-09-28T17:41:49.879Z,1.23
2022-09-28T17:44:24.407Z,1.10
2022-09-28T17:46:55.335Z,1.63
2022-09-28T17:49:23.482Z,1.17
2022-09-28T17:51:52.945Z,1.17
2022-09-28T17:54:22.675Z,1.20
2022-09-28T17:57:01.118Z,0.83
2022-09-28T17:59:29.263Z,1.03
2022-09-28T18:02:02.857Z,0.90
2022-09-28T18:04:50.782Z,0.93
2022-09-28T18:07:26.141Z,0.90
2022-09-28T18:09:56.797Z,2.67
2022-09-28T18:12:25.137Z,2.47
2022-09-28T18:14:53.863Z,1.37
2022-09-28T18:17:40.870Z,1.60
2022-09-28T18:20:12.509Z,1.47
2022-09-28T18:22:40.720Z,1.40
2022-09-28T18:25:09.562Z,1.07
2022-09-28T18:27:43.452Z,2.10
2022-09-28T18:30:12.255Z,2.00
2022-09-28T18:32:45.470Z,1.70
2022-09-28T18:35:19.370Z,2.43
2022-09-28T18:37:53.023Z,1.27
2022-09-28T18:40:21.845Z,1.47
2022-09-28T18:42:52.201Z,3.57
2022-09-28T18:45:23.066Z,1.80
2022-09-28T18:47:57.836Z,1.50
2022-09-28T18:50:26.105Z,1.80
2022-09-28T18:53:11.378Z,1.20
2022-09-28T18:55:42.058Z,1.37
2022-09-28T18:58:13.305Z,1.10
2022-09-28T19:00:44.358Z,1.30
2022-09-28T19:03:21.791Z,1.60
2022-09-28T19:05:50.122Z,1.50
2022-09-28T19:08:27.543Z,1.17
2022-09-28T19:11:06.132Z,1.20
2022-09-28T19:13:34.334Z,0.90
2022-09-28T19:16:09.817Z,1.00
2022-09-28T19:18:39.514Z,1.00
2022-09-28T19:21:08.744Z,1.50
2022-09-28T19:23:37.166Z,1.63
2022-09-28T19:26:13.133Z,2.17
2022-09-28T19:28:41.848Z,2.53
2022-09-28T19:31:10.253Z,4.10
2022-09-28T19:33:53.775Z,2.17
2022-09-28T19:36:23.805Z,3.50
2022-09-28T19:38:54.525Z,3.70
2022-09-28T19:41:43.683Z,3.13
2022-09-28T19:44:15.871Z,2.37
2022-09-28T19:46:46.227Z,2.30
2022-09-28T19:49:19.508Z,2.23
2022-09-28T19:52:11.399Z,2.70
2022-09-28T19:54:38.242Z,3.07
2022-09-28T19:57:09.007Z,2.30
2022-09-28T19:59:37.403Z,2.30
2022-09-28T20:02:06.227Z,1.60
2022-09-28T20:04:36.013Z,2.30
2022-09-28T20:07:10.808Z,1.87
2022-09-28T20:09:43.776Z,2.10
2022-09-28T20:12:20.235Z,2.33
2022-09-28T20:14:48.262Z,2.07
2022-09-28T20:17:19.370Z,1.67
2022-09-28T20:19:51.823Z,2.20
2022-09-28T20:22:20.233Z,2.30
2022-09-28T20:24:48.419Z,1.83
2022-09-28T20:27:16.541Z,1.43
2022-09-28T20:29:48.774Z,1.57
2022-09-28T20:32:17.465Z,2.00
2022-09-28T20:34:45.629Z,1.73
2022-09-28T20:37:18.681Z,1.90
2022-09-28T20:39:46.995Z,3.03
2022-09-28T20:42:19.581Z,2.10
2022-09-28T20:44:47.725Z,1.83
2022-09-28T20:47:23.278Z,2.10
2022-09-28T20:49:52.475Z,2.10
2022-09-28T20:52:27.524Z,2.60
2022-09-28T20:54:56.000Z,2.20
2022-09-28T20:57:24.654Z,2.33
2022-09-28T20:59:54.869Z,2.60
2022-09-28T21:02:25.677Z,2.17
2022-09-28T21:04:54.170Z,2.30
2022-09-28T21:07:22.414Z,2.27
2022-09-28T21:09:52.165Z,1.80
2022-09-28T21:12:20.575Z,2.30
2022-09-28T21:14:48.781Z,2.10
2022-09-28T21:17:17.346Z,2.30
2022-09-28T21:19:45.598Z,2.57
2022-09-28T21:22:14.172Z,2.60
2022-09-28T21:24:49.392Z,3.00
2022-09-28T21:27:22.003Z,2.30
2022-09-28T21:29:50.127Z,2.80
2022-09-28T21:32:25.718Z,2.60
2022-09-28T21:34:56.479Z,2.10
2022-09-28T21:37:25.197Z,2.80
2022-09-28T21:39:54.604Z,2.80
2022-09-28T21:42:24.311Z,3.00
2022-09-28T21:44:59.366Z,3.23
2022-09-28T21:47:32.952Z,3.13
2022-09-28T21:50:10.206Z,3.50
2022-09-28T21:52:39.790Z,3.50
2022-09-28T21:55:10.702Z,3.60
2022-09-28T21:57:40.582Z,4.00
2022-09-28T22:00:15.311Z,4.00
2022-09-28T22:02:43.872Z,3.77
2022-09-28T22:05:14.402Z,4.20
2022-09-28T22:07:42.786Z,4.10
2022-09-28T22:10:14.182Z,4.30
2022-09-28T22:12:44.242Z,4.60
2022-09-28T22:15:12.631Z,4.67
2022-09-28T22:17:41.214Z,4.50
2022-09-28T22:20:10.307Z,4.73
2022-09-28T22:22:38.467Z,4.23
2022-09-28T22:25:07.847Z,4.60
2022-09-28T22:27:36.253Z,5.40
2022-09-28T22:30:14.067Z,6.13
2022-09-28T22:32:42.184Z,4.90
2022-09-28T22:35:11.277Z,4.80
2022-09-28T22:37:39.469Z,4.90
2022-09-28T22:40:15.684Z,4.97
2022-09-28T22:42:44.442Z,5.30
2022-09-28T22:45:14.257Z,5.37
2022-09-28T22:47:42.418Z,5.40
2022-09-28T22:50:14.230Z,5.40
2022-09-28T22:52:42.476Z,4.80
2022-09-28T22:55:12.859Z,4.67
2022-09-28T22:57:41.417Z,4.77
2022-09-28T23:00:10.523Z,4.73
2022-09-28T23:02:42.029Z,4.57
2022-09-28T23:05:10.395Z,5.43
2022-09-28T23:07:38.853Z,4.97
2022-09-28T23:10:07.882Z,5.23
2022-09-28T23:12:36.072Z,4.80
2022-09-28T23:15:04.377Z,5.20
2022-09-28T23:17:32.544Z,5.50
2022-09-28T23:20:02.457Z,4.97
2022-09-28T23:22:30.583Z,4.93
2022-09-28T23:25:02.981Z,4.77
2022-09-28T23:27:31.097Z,5.10
2022-09-28T23:30:02.525Z,5.03
2022-09-28T23:32:32.118Z,4.80
2022-09-28T23:35:01.837Z,5.00
2022-09-28T23:37:30.091Z,5.20
2022-09-28T23:39:58.255Z,4.80
2022-09-28T23:42:26.663Z,9.03
2022-09-28T23:44:59.966Z,4.77
2022-09-28T23:47:28.135Z,4.93
2022-09-28T23:49:56.317Z,6.03
2022-09-28T23:52:26.438Z,5.00
2022-09-28T23:54:54.846Z,6.20
2022-09-28T23:57:23.460Z,4.90
2022-09-28T23:59:51.668Z,4.90
